Time;durP1;ratioP1;P1;durP2;ratioP2;P2;SDS_P1;SDS_P2;PMS_P1;PMS_P2;Temp;Humidity;BMP_temperature;BMP_pressure;BME280_temperature;BME280_humidity;BME280_pressure;Samples;Min_cycle;Max_cycle;Signal;HPM_P1;HPM_P2
2022/08/12 00:44:24;;;;;;;1.58;0.85;;;;;;;21.23;47.00;99935.78;4357548;32;35552;-78
2022/08/12 00:47:12;;;;;;;2.03;0.80;;;;;;;20.81;48.25;99935.94;4361793;32;34405;-78
2022/08/12 00:50:17;;;;;;;1.35;0.80;;;;;;;21.30;47.25;99940.66;4358500;32;34210;-77
2022/08/12 00:53:05;;;;;;;3.40;0.68;;;;;;;21.25;47.43;99940.97;4357834;32;35517;-78
2022/08/12 00:55:54;;;;;;;1.98;0.55;;;;;;;21.34;47.71;99941.50;4365558;32;34445;-77
2022/08/12 00:58:47;;;;;;;2.78;1.00;;;;;;;20.92;49.08;99939.69;4355053;32;34405;-78
2022/08/12 01:01:34;;;;;;;1.65;0.80;;;;;;;20.83;49.04;99939.13;4357324;32;34154;-77
2022/08/12 01:14:00;;;;;;;1.42;0.70;;;;;;;21.14;47.81;99943.59;4357508;32;34375;-78
2022/08/12 01:16:47;;;;;;;0.95;0.73;;;;;;;21.04;47.54;99939.47;4347029;32;35523;-77
2022/08/12 01:19:34;;;;;;;1.20;0.68;;;;;;;20.79;48.98;99943.84;4361027;32;34563;-78
2022/08/12 01:22:40;;;;;;;2.92;1.00;;;;;;;20.67;49.34;99940.06;4358020;32;34358;-78
2022/08/12 01:25:28;;;;;;;1.40;0.82;;;;;;;20.79;48.46;99936.28;4367457;32;35087;-77
2022/08/12 01:28:15;;;;;;;1.08;0.80;;;;;;;21.15;46.55;99944.41;4356713;32;34581;-78
2022/08/12 01:31:05;;;;;;;2.22;1.10;;;;;;;20.98;47.69;99940.97;4357432;32;35789;-78
2022/08/12 01:34:00;;;;;;;2.28;0.70;;;;;;;20.89;48.30;99937.66;4357140;32;34450;-78
2022/08/12 01:36:52;;;;;;;2.03;0.90;;;;;;;20.83;48.65;99933.56;4357585;32;34258;-78
2022/08/12 01:39:42;;;;;;;2.22;0.95;;;;;;;20.96;48.61;99926.59;4357099;32;34257;-78
2022/08/12 01:42:50;;;;;;;3.00;0.77;;;;;;;20.74;49.11;99930.22;4358190;32;35737;-77
2022/08/12 01:45:42;;;;;;;1.37;0.88;;;;;;;20.61;49.19;99927.63;4358324;32;33504;-78
2022/08/12 01:48:32;;;;;;;1.75;0.82;;;;;;;19.87;52.22;99933.41;4367292;32;33751;-78
2022/08/12 01:51:30;;;;;;;1.10;0.85;;;;;;;20.86;49.48;99928.06;4358304;32;35558;-78
2022/08/12 01:54:40;;;;;;;2.37;0.68;;;;;;;20.41;50.32;99923.28;4358609;32;34957;-78
2022/08/12 01:57:43;;;;;;;2.95;1.75;;;;;;;20.52;49.15;99913.16;4357715;32;34612;-78
2022/08/12 02:00:59;;;;;;;2.15;0.70;;;;;;;20.74;48.93;99919.88;4352010;32;35083;-78
2022/08/12 02:11:22;;;;;;;2.10;0.82;;;;;;;20.61;48.94;99916.50;4353900;32;34712;-78
2022/08/12 02:14:23;;;;;;;1.58;0.93;;;;;;;20.09;51.09;99911.53;4357922;32;33881;-77
2022/08/12 02:17:38;;;;;;;2.92;0.80;;;;;;;19.81;51.99;99906.22;4365278;32;35536;-78
2022/08/12 02:21:01;;;;;;;1.25;0.85;;;;;;;20.07;51.63;99911.13;4356751;32;35732;-77
2022/08/12 02:23:48;;;;;;;1.10;0.82;;;;;;;19.89;52.26;99902.41;4351618;32;35521;-77
2022/08/12 02:26:36;;;;;;;1.25;0.82;;;;;;;19.55;53.15;99902.94;4356803;32;33624;-77
2022/08/12 02:29:23;;;;;;;1.87;0.85;;;;;;;19.62;53.09;99899.50;4346292;32;34282;-77
2022/08/12 02:32:09;;;;;;;1.83;1.00;;;;;;;20.07;52.21;99900.81;4366405;32;36140;-77
2022/08/12 02:34:56;;;;;;;1.52;0.93;;;;;;;20.08;52.48;99894.06;4348200;32;33871;-77
2022/08/12 02:37:43;;;;;;;1.67;1.10;;;;;;;20.13;52.30;99893.75;4359249;32;34236;-77
2022/08/12 02:40:30;;;;;;;5.10;1.10;;;;;;;20.02;52.39;99897.53;4348043;32;34126;-77
2022/08/12 02:43:33;;;;;;;1.35;0.93;;;;;;;19.58;53.81;99895.00;4352985;32;36064;-78
2022/08/12 02:46:26;;;;;;;2.12;1.02;;;;;;;18.97;55.75;99896.47;4357777;32;35422;-78
2022/08/12 02:49:16;;;;;;;3.53;0.90;;;;;;;19.66;53.99;99894.03;4347843;32;34148;-78
2022/08/12 02:52:03;;;;;;;1.40;0.93;;;;;;;19.46;54.27;99890.41;4360264;32;34356;-78
2022/08/12 02:54:53;;;;;;;3.03;1.10;;;;;;;19.70;53.62;99890.16;4357416;32;34434;-77
2022/08/12 02:57:40;;;;;;;2.10;1.20;;;;;;;19.17;55.18;99889.78;4354486;32;34458;-78
2022/08/12 03:00:27;;;;;;;1.60;0.82;;;;;;;19.35;54.67;99883.81;4367209;32;35005;-77
2022/08/12 03:03:14;;;;;;;1.52;0.98;;;;;;;19.43;55.01;99883.59;4357590;32;34735;-78
2022/08/12 03:06:08;;;;;;;2.25;1.10;;;;;;;19.04;55.87;99885.50;4359181;32;35178;-78
2022/08/12 03:08:57;;;;;;;1.73;1.20;;;;;;;19.44;54.82;99876.06;4359306;32;34539;-77
2022/08/12 03:11:49;;;;;;;0.88;0.70;;;;;;;19.16;55.57;99874.31;4359302;32;34293;-78
2022/08/12 03:14:37;;;;;;;;;;;;;;;19.02;56.66;99880.34;4358202;32;34703;-77
2022/08/12 03:17:42;;;;;;;2.03;1.10;;;;;;;19.31;55.10;99879.00;4347423;32;35581;-78
2022/08/12 03:20:29;;;;;;;3.40;1.20;;;;;;;19.28;55.17;99884.47;4358112;32;34562;-77
2022/08/12 03:23:15;;;;;;;2.55;1.20;;;;;;;18.73;57.61;99884.41;4349039;32;34169;-77
2022/08/12 03:26:14;;;;;;;1.90;1.23;;;;;;;19.23;55.33;99880.00;4362022;32;34435;-77
2022/08/12 03:29:05;;;;;;;1.85;1.12;;;;;;;19.31;54.62;99884.53;4359055;32;35001;-78
2022/08/12 03:31:54;;;;;;;;;;;;;;;18.96;56.10;99889.31;4348051;32;35574;-78
2022/08/12 03:34:41;;;;;;;2.60;1.00;;;;;;;18.68;57.19;99887.44;4353733;32;34133;-77
2022/08/12 03:37:29;;;;;;;2.10;1.10;;;;;;;18.71;57.26;99886.72;4349436;32;35603;-78
2022/08/12 03:41:33;;;;;;;2.37;1.20;;;;;;;18.80;57.11;99884.59;4348946;32;35886;-78
2022/08/12 04:02:06;;;;;;;4.03;1.30;;;;;;;18.64;57.46;99889.31;4356160;32;35543;-77
2022/08/12 04:04:54;;;;;;;2.50;1.20;;;;;;;18.67;57.74;99896.94;4359235;32;34629;-77
2022/08/12 04:07:41;;;;;;;2.33;1.50;;;;;;;18.62;57.35;99897.19;4357745;32;35675;-78
2022/08/12 04:13:49;;;;;;;2.10;1.20;;;;;;;18.65;57.20;99897.28;4358223;32;34272;-78
2022/08/12 04:16:36;;;;;;;3.28;1.37;;;;;;;18.95;56.77;99896.03;4359382;32;35005;-78
2022/08/12 04:19:23;;;;;;;1.85;1.20;;;;;;;18.92;56.50;99899.53;4359302;32;34394;-78
2022/08/12 04:22:11;;;;;;;2.12;1.23;;;;;;;18.25;59.00;99910.53;4358825;32;34082;-77
2022/08/12 04:25:01;;;;;;;3.25;1.40;;;;;;;18.55;57.91;99914.47;4358943;32;34698;-77
2022/08/12 04:27:49;;;;;;;3.85;1.20;;;;;;;18.65;58.08;99904.81;4357307;32;35025;-78
2022/08/12 04:30:36;;;;;;;2.30;1.50;;;;;;;18.72;57.98;99906.94;4358208;32;35478;-78
2022/08/12 04:33:24;;;;;;;3.30;1.15;;;;;;;18.69;58.35;99907.66;4358362;32;34215;-78
2022/08/12 04:36:10;;;;;;;2.05;1.10;;;;;;;19.02;56.93;99916.44;4358419;32;35475;-77
2022/08/12 04:38:57;;;;;;;3.05;1.42;;;;;;;18.90;57.50;99919.34;4357545;32;34999;-78
2022/08/12 04:41:44;;;;;;;2.17;1.30;;;;;;;18.80;57.53;99920.66;4349660;32;34166;-77
2022/08/12 04:44:44;;;;;;;3.30;1.20;;;;;;;18.85;57.71;99923.19;4358833;32;33903;-77
2022/08/12 04:47:30;;;;;;;3.85;1.48;;;;;;;18.97;57.58;99921.47;4358163;32;34335;-77
2022/08/12 04:50:17;;;;;;;2.83;1.50;;;;;;;19.03;57.98;99925.56;4357049;32;35044;-77
2022/08/12 04:53:20;;;;;;;3.37;1.42;;;;;;;19.08;57.92;99937.19;4352527;32;34010;-78
2022/08/12 04:56:08;;;;;;;5.40;1.50;;;;;;;19.42;56.91;99937.56;4362529;32;32953;-78
2022/08/12 04:58:56;;;;;;;3.28;1.55;;;;;;;19.27;57.23;99936.47;4359993;32;35536;-78
2022/08/12 05:01:49;;;;;;;3.08;1.40;;;;;;;19.24;58.16;99939.13;4352775;32;36009;-78
2022/08/12 05:04:36;;;;;;;4.32;1.35;;;;;;;19.42;57.21;99939.56;4364435;32;34865;-78
2022/08/12 05:07:22;;;;;;;2.85;1.25;;;;;;;19.41;57.31;99944.31;4358622;32;34456;-78
2022/08/12 05:10:09;;;;;;;3.80;1.58;;;;;;;19.60;56.90;99946.28;4358582;32;35483;-78
2022/08/12 05:12:58;;;;;;;4.12;1.40;;;;;;;19.70;56.58;99940.19;4358533;32;34970;-77
2022/08/12 05:15:45;;;;;;;4.95;1.50;;;;;;;18.96;58.66;99942.88;4353926;32;34424;-77
2022/08/12 05:18:51;;;;;;;4.78;1.40;;;;;;;19.36;58.00;99946.56;4357884;32;34149;-78
2022/08/12 05:21:37;;;;;;;9.73;1.58;;;;;;;19.66;57.37;99949.63;4358434;32;35611;-78
2022/08/12 05:24:26;;;;;;;6.03;1.70;;;;;;;19.86;57.07;99948.44;4356942;32;35936;-78
2022/08/12 05:27:13;;;;;;;5.22;1.62;;;;;;;20.16;53.66;99945.06;4357209;32;34171;-78
2022/08/12 05:29:59;;;;;;;3.28;1.60;;;;;;;19.65;55.68;99946.03;4357823;32;33844;-77
2022/08/12 05:32:56;;;;;;;2.42;1.10;;;;;;;20.38;51.87;99935.97;4347938;32;33507;-77
2022/08/12 05:35:46;;;;;;;;;;;;;;;20.18;52.75;99943.53;4357637;32;35009;-77
2022/08/12 05:41:38;;;;;;;2.75;1.50;;;;;;;20.02;53.76;99937.25;4357684;32;35145;-77
2022/08/12 05:44:25;;;;;;;4.82;1.33;;;;;;;20.34;51.99;99942.63;4365529;32;34425;-78
2022/08/12 05:47:13;;;;;;;3.58;1.50;;;;;;;19.39;55.23;99945.84;4363655;32;36275;-78
2022/08/12 05:49:59;;;;;;;5.47;1.62;;;;;;;19.95;53.21;99940.72;4357387;32;34194;-78
2022/08/12 05:52:46;;;;;;;3.95;1.50;;;;;;;19.66;56.38;99941.28;4358229;32;34147;-78
2022/08/12 05:55:34;;;;;;;3.33;1.58;;;;;;;19.42;57.21;99945.91;4356336;32;34617;-78
2022/08/12 05:58:20;;;;;;;5.50;1.50;;;;;;;;;;4367413;32;35023;-78
2022/08/12 06:01:06;;;;;;;2.12;1.23;;;;;;;20.52;51.30;99937.38;4346644;32;35948;-78
2022/08/12 06:04:13;;;;;;;4.07;1.42;;;;;;;20.92;51.29;99933.28;4358193;32;34006;-77
2022/08/12 06:07:00;;;;;;;3.47;1.40;;;;;;;20.89;51.10;99944.03;4350003;32;34703;-78
2022/08/12 06:09:47;;;;;;;4.10;1.50;;;;;;;21.05;48.97;99935.50;4351208;32;36126;-78
2022/08/12 06:12:34;;;;;;;4.28;1.55;;;;;;;21.31;50.14;99945.84;4349338;32;35110;-77
2022/08/12 06:15:21;;;;;;;5.18;1.98;;;;;;;21.31;48.66;99942.25;4357794;32;34817;-78
2022/08/12 06:18:09;;;;;;;2.58;1.62;;;;;;;21.32;47.33;99939.09;4360358;32;35603;-78
2022/08/12 06:20:59;;;;;;;;;;;;;;;21.40;47.44;99942.81;4358421;32;34972;-77
2022/08/12 06:23:47;;;;;;;4.20;1.70;;;;;;;21.90;46.59;99940.66;4346819;32;34895;-78
2022/08/12 06:26:33;;;;;;;2.62;1.60;;;;;;;22.28;45.79;99941.50;4358036;32;33844;-78
2022/08/12 06:29:21;;;;;;;2.03;1.65;;;;;;;22.17;45.37;99940.56;4357856;32;34647;-78
2022/08/12 06:32:28;;;;;;;4.78;1.80;;;;;;;21.98;45.14;99952.72;4357817;32;36023;-77
2022/08/12 06:35:16;;;;;;;2.40;1.50;;;;;;;22.00;45.81;99950.38;4357642;32;34669;-77
2022/08/12 06:38:18;;;;;;;3.25;1.87;;;;;;;22.75;44.18;99939.97;4347786;32;34976;-78
2022/08/12 06:44:15;;;;;;;2.25;1.50;;;;;;;22.32;45.28;99952.75;4360453;32;34581;-77
2022/08/12 06:47:02;;;;;;;3.25;1.60;;;;;;;22.73;43.62;99941.53;4357696;32;34620;-77
2022/08/12 06:49:48;;;;;;;6.30;2.00;;;;;;;23.16;43.60;99941.91;4356844;32;33790;-79
2022/08/12 06:52:35;;;;;;;5.68;1.95;;;;;;;23.04;43.53;99941.03;4346248;32;34621;-77
2022/08/12 06:55:24;;;;;;;4.12;1.95;;;;;;;22.98;44.07;99944.56;4357662;32;35094;-78
2022/08/12 06:58:10;;;;;;;2.75;1.70;;;;;;;23.16;43.40;99942.69;4357422;32;34579;-78
2022/08/12 07:00:58;;;;;;;2.50;1.55;;;;;;;23.69;42.08;99931.03;4357451;32;34367;-78
2022/08/12 07:03:44;;;;;;;4.78;1.70;;;;;;;22.99;42.83;99940.59;4356693;32;34726;-78
2022/08/12 07:06:30;;;;;;;2.50;1.75;;;;;;;23.02;43.15;99948.97;4357277;32;35211;-78
2022/08/12 07:09:16;;;;;;;2.53;1.75;;;;;;;23.64;43.18;99950.97;4357280;32;34736;-78
2022/08/12 07:12:25;;;;;;;2.45;1.85;;;;;;;23.95;40.94;99948.75;4357397;32;34748;-78
2022/08/12 07:15:13;;;;;;;3.37;1.58;;;;;;;23.53;42.16;99950.13;4361897;32;33438;-78
2022/08/12 07:18:05;;;;;;;2.33;1.62;;;;;;;23.10;42.59;99941.47;4356063;32;33955;-78
2022/08/12 07:20:52;;;;;;;2.72;1.80;;;;;;;24.07;42.11;99945.56;4367394;32;34255;-77
2022/08/12 07:23:40;;;;;;;2.37;1.58;;;;;;;23.69;41.94;99947.81;4359508;32;35069;-77
2022/08/12 07:26:27;;;;;;;4.22;1.85;;;;;;;23.82;41.37;99951.06;4358013;32;35453;-78
2022/08/12 07:29:15;;;;;;;3.50;1.60;;;;;;;24.12;40.69;99956.41;4359387;32;35948;-77
2022/08/12 07:32:04;;;;;;;2.50;1.90;;;;;;;23.96;42.40;99950.34;4363781;32;34685;-78
2022/08/12 07:34:50;;;;;;;2.75;1.87;;;;;;;24.44;40.69;99950.88;4358945;32;33890;-77
2022/08/12 07:37:41;;;;;;;4.43;1.80;;;;;;;24.17;41.15;99932.81;4358695;32;35584;-78
2022/08/12 07:40:28;;;;;;;4.57;2.92;;;;;;;24.08;41.24;99946.38;4362570;32;35068;-78
2022/08/12 07:43:15;;;;;;;3.45;1.90;;;;;;;24.24;40.56;99944.03;4359144;32;35375;-78
2022/08/12 07:46:03;;;;;;;5.78;2.10;;;;;;;24.30;40.83;99947.25;4357184;32;34229;-78
2022/08/12 07:48:52;;;;;;;3.60;1.62;;;;;;;24.43;41.32;99951.31;4366920;32;35536;-77
2022/08/12 07:51:40;;;;;;;3.22;1.85;;;;;;;24.53;40.43;99944.91;4364038;32;35828;-78
2022/08/12 07:54:27;;;;;;;3.60;1.83;;;;;;;24.68;39.98;99952.12;4358257;32;34767;-77
2022/08/12 07:57:14;;;;;;;4.40;1.85;;;;;;;24.54;40.13;99946.53;4360293;32;34221;-77
2022/08/12 08:00:05;;;;;;;3.45;1.92;;;;;;;24.82;39.54;99942.16;4358057;32;35495;-77
2022/08/12 08:02:53;;;;;;;6.82;2.45;;;;;;;25.13;39.09;99937.69;4359098;32;35715;-78
2022/08/12 08:05:45;;;;;;;4.55;2.42;;;;;;;25.05;39.42;99934.13;4350900;32;34335;-77
2022/08/12 08:08:31;;;;;;;4.55;2.25;;;;;;;25.18;38.66;99942.13;4361639;32;34078;-77
2022/08/12 08:14:24;;;;;;;4.05;2.03;;;;;;;25.06;39.38;99944.12;4358676;32;35168;-77
2022/08/12 08:17:10;;;;;;;6.32;2.40;;;;;;;25.34;39.06;99934.09;4364845;32;35485;-78
2022/08/12 08:19:56;;;;;;;5.35;2.10;;;;;;;25.60;38.84;99941.22;4359497;32;35139;-78
2022/08/12 08:22:49;;;;;;;4.85;2.20;;;;;;;25.52;38.75;99942.44;4364490;32;34737;-78
2022/08/12 08:25:37;;;;;;;4.20;2.67;;;;;;;25.49;38.76;99943.25;4359415;32;35208;-78
2022/08/12 08:28:23;;;;;;;4.28;2.60;;;;;;;25.79;38.55;99935.16;4354534;32;34232;-78
2022/08/12 08:31:12;;;;;;;5.53;2.40;;;;;;;25.75;39.03;99939.16;4358174;32;35035;-79
2022/08/12 08:34:00;;;;;;;7.50;2.58;;;;;;;26.25;37.56;99938.97;4358801;32;34426;-78
2022/08/12 08:37:06;;;;;;;4.37;2.37;;;;;;;26.16;37.49;99936.59;4358884;32;34977;-77
2022/08/12 08:42:35;;;;;;;8.75;2.87;;;;;;;26.56;36.50;99930.75;4359158;32;34741;-77
2022/08/12 08:43:06;;;;;;;4.20;2.60;;;;;;;26.67;36.49;99935.09;4358916;32;34194;-77
2022/08/12 08:45:56;;;;;;;4.12;2.67;;;;;;;26.99;35.62;99933.22;4358751;32;35729;-78
2022/08/12 08:48:43;;;;;;;6.50;2.85;;;;;;;27.19;34.87;99925.81;4358861;32;35063;-78
2022/08/12 08:51:30;;;;;;;4.55;2.58;;;;;;;26.97;35.27;99932.81;4359161;32;34991;-78
2022/08/12 08:54:16;;;;;;;5.10;2.92;;;;;;;27.26;34.50;99934.16;4358724;32;34336;-78
2022/08/12 08:57:04;;;;;;;4.45;2.90;;;;;;;27.63;33.93;99929.72;4357811;32;35617;-77
2022/08/12 08:59:50;;;;;;;4.07;2.67;;;;;;;26.98;35.08;99932.41;4358938;32;36041;-77
2022/08/12 09:02:36;;;;;;;6.68;3.28;;;;;;;27.41;34.42;99922.75;4358783;32;34487;-78
2022/08/12 09:05:24;;;;;;;4.62;3.08;;;;;;;27.44;34.92;99927.56;4357667;32;33654;-77
2022/08/12 09:08:11;;;;;;;5.47;3.20;;;;;;;27.92;33.12;99918.13;4358953;32;33600;-78
2022/08/12 09:14:42;;;;;;;4.03;3.10;;;;;;;27.93;33.17;99911.31;4358704;32;34746;-77
2022/08/12 09:17:33;;;;;;;5.12;3.17;;;;;;;27.84;33.08;99911.03;4358694;32;33858;-77
2022/08/12 09:20:39;;;;;;;7.37;3.40;;;;;;;28.30;33.15;99906.75;4358450;32;34688;-78
2022/08/12 09:23:27;;;;;;;6.32;3.42;;;;;;;27.47;32.67;99915.47;4359489;32;34971;-78
2022/08/12 09:26:34;;;;;;;4.70;3.33;;;;;;;28.62;31.98;99904.25;4358327;32;35543;-78
2022/08/12 09:29:34;;;;;;;6.03;3.17;;;;;;;28.84;31.31;99904.69;4351033;32;34036;-79
2022/08/12 09:32:43;;;;;;;4.75;3.40;;;;;;;28.61;30.76;99899.84;4349289;32;34648;-77
2022/08/12 09:35:49;;;;;;;4.32;2.97;;;;;;;27.73;32.34;99895.03;4357961;32;35699;-78
2022/08/12 09:38:50;;;;;;;3.55;2.65;;;;;;;28.38;31.63;99892.13;4358252;32;34494;-77
2022/08/12 09:45:19;;;;;;;3.40;2.60;;;;;;;28.71;31.00;99883.97;4358136;32;34190;-77
2022/08/12 09:45:21;;;;;;;3.55;2.42;;;;;;;29.22;30.98;99883.88;4357787;32;34189;-78
2022/08/12 09:48:27;;;;;;;3.53;2.33;;;;;;;29.19;30.57;99885.53;4358415;32;36938;-77
2022/08/12 09:51:21;;;;;;;4.28;2.42;;;;;;;29.80;29.31;99876.69;4357861;32;34775;-77
2022/08/12 09:54:11;;;;;;;5.07;2.47;;;;;;;29.85;29.29;99878.16;4357142;32;34453;-78
2022/08/12 09:57:20;;;;;;;4.12;2.30;;;;;;;29.75;28.75;99890.50;4351463;32;35599;-77
2022/08/12 10:00:26;;;;;;;4.28;2.30;;;;;;;29.87;28.87;99884.19;4357948;32;35025;-77
2022/08/12 10:03:26;;;;;;;5.97;2.78;;;;;;;30.22;28.50;99881.81;4358158;32;34594;-77
2022/08/12 10:06:17;;;;;;;6.75;2.30;;;;;;;30.11;29.58;99881.22;4357989;32;34172;-78
2022/08/12 10:09:20;;;;;;;5.80;2.85;;;;;;;29.95;28.79;99882.00;4357889;32;34806;-77
2022/08/12 10:15:19;;;;;;;3.58;2.58;;;;;;;29.87;29.73;99864.41;4358144;32;34580;-77
2022/08/12 10:18:25;;;;;;;6.28;2.65;;;;;;;30.01;28.80;99866.91;4357910;32;34094;-77
2022/08/12 10:21:14;;;;;;;4.50;2.50;;;;;;;30.63;27.88;99872.72;4357598;32;34381;-78
2022/08/12 10:24:02;;;;;;;5.95;2.53;;;;;;;30.01;27.87;99872.56;4357930;32;34077;-77
2022/08/12 10:30:01;;;;;;;4.80;2.60;;;;;;;30.25;28.00;99856.31;4357838;32;33690;-78
2022/08/12 10:33:07;;;;;;;5.00;2.60;;;;;;;30.43;27.34;99857.91;4361014;32;35654;-77
2022/08/12 10:36:04;;;;;;;3.72;2.37;;;;;;;29.78;28.78;99859.38;4356936;32;34560;-77
2022/08/12 10:38:51;;;;;;;5.30;2.55;;;;;;;29.72;29.17;99849.03;4357418;32;34687;-78
2022/08/12 10:44:46;;;;;;;5.50;2.67;;;;;;;29.32;29.54;99854.69;4357743;32;34772;-78
2022/08/12 10:47:34;;;;;;;4.75;2.40;;;;;;;29.97;28.61;99852.09;4356626;32;35604;-77
2022/08/12 10:50:40;;;;;;;4.30;2.90;;;;;;;29.93;28.96;99847.75;4364841;32;36595;-77
2022/08/12 10:53:47;;;;;;;4.12;2.17;;;;;;;31.02;27.41;99847.50;4357475;32;34162;-77
2022/08/12 10:56:40;;;;;;;4.80;2.90;;;;;;;31.15;27.27;99845.53;4359422;32;34651;-78
2022/08/12 10:59:30;;;;;;;4.40;2.50;;;;;;;30.98;26.83;99846.81;4357798;32;36000;-77
2022/08/12 11:02:47;;;;;;;4.40;2.65;;;;;;;31.08;25.88;99840.03;4359449;32;35509;-78
2022/08/12 11:05:54;;;;;;;4.68;2.30;;;;;;;31.15;26.36;99834.19;4359288;32;34778;-78
2022/08/12 11:09:01;;;;;;;3.17;2.25;;;;;;;31.58;26.34;99830.16;4359217;32;34629;-78
2022/08/12 11:11:58;;;;;;;4.87;2.42;;;;;;;31.44;26.02;99827.75;4359321;32;35731;-79
2022/08/12 11:15:05;;;;;;;4.15;2.60;;;;;;;29.67;28.13;99833.37;4358578;32;35326;-77
2022/08/12 11:18:06;;;;;;;5.22;2.47;;;;;;;29.69;27.23;99822.47;4367359;32;34182;-77
2022/08/12 11:20:58;;;;;;;5.40;2.22;;;;;;;30.34;27.24;99820.97;4362244;32;35592;-77
2022/08/12 11:23:44;;;;;;;4.75;2.42;;;;;;;29.44;28.14;99817.31;4349972;32;35708;-77
2022/08/12 11:26:38;;;;;;;3.33;2.20;;;;;;;30.01;28.21;99826.56;4352684;32;35665;-77
2022/08/12 11:29:27;;;;;;;2.50;2.10;;;;;;;30.20;27.49;99822.88;4354705;32;34080;-77
2022/08/12 11:32:33;;;;;;;3.62;2.20;;;;;;;29.77;27.74;99823.06;4350256;32;34636;-77
2022/08/12 11:35:24;;;;;;;;;;;;;;;29.56;28.16;99816.66;4359116;32;35569;-77
2022/08/12 11:38:14;;;;;;;3.53;2.10;;;;;;;29.50;28.15;99820.44;4349673;32;35441;-77
2022/08/12 11:41:05;;;;;;;3.78;2.45;;;;;;;29.36;28.01;99816.66;4359291;32;34201;-77
2022/08/12 11:43:51;;;;;;;3.60;1.75;;;;;;;30.14;27.55;99826.66;4359054;32;34397;-77
2022/08/12 11:46:44;;;;;;;3.50;1.90;;;;;;;29.80;28.69;99813.75;4365713;32;34874;-77
2022/08/12 11:49:36;;;;;;;3.83;2.10;;;;;;;31.21;25.26;99811.81;4359067;32;34566;-77
2022/08/12 11:52:23;;;;;;;6.10;1.77;;;;;;;31.39;25.47;99814.12;4359243;32;33789;-77
2022/08/12 11:55:31;;;;;;;3.37;1.95;;;;;;;31.91;24.30;99805.28;4359196;32;35626;-77
2022/08/12 11:58:19;;;;;;;5.40;2.00;;;;;;;30.27;26.08;99804.97;4358957;32;34969;-77
2022/08/12 12:01:26;;;;;;;5.30;2.17;;;;;;;30.12;26.55;99812.19;4359198;32;34762;-78
2022/08/12 12:04:33;;;;;;;3.50;2.15;;;;;;;30.52;25.62;99801.53;4359107;32;34125;-78
2022/08/12 12:07:22;;;;;;;4.72;1.90;;;;;;;30.65;27.37;99805.22;4358988;32;35633;-77
2022/08/12 12:10:28;;;;;;;7.05;1.98;;;;;;;31.48;26.92;99803.75;4359116;32;35159;-77
2022/08/12 12:13:15;;;;;;;4.93;1.92;;;;;;;31.86;26.22;99807.88;4358958;32;35294;-77
2022/08/12 12:16:21;;;;;;;3.67;2.20;;;;;;;30.20;27.33;99810.78;4357741;32;33810;-79
2022/08/12 12:19:08;;;;;;;2.28;1.87;;;;;;;29.94;28.47;99799.31;4353362;32;34558;-77
2022/08/12 12:21:55;;;;;;;2.05;1.77;;;;;;;30.72;27.71;99804.22;4358108;32;36050;-77
2022/08/12 12:24:46;;;;;;;3.97;1.80;;;;;;;31.61;26.51;99792.44;4358921;32;35428;-76
2022/08/12 12:27:53;;;;;;;5.12;2.30;;;;;;;31.80;26.17;99799.12;4363113;32;34190;-78
2022/08/12 12:30:51;;;;;;;2.45;2.05;;;;;;;30.83;27.11;99803.97;4358510;32;34627;-77
2022/08/12 12:33:39;;;;;;;2.03;1.83;;;;;;;31.41;26.66;99789.78;4358685;32;34736;-77
2022/08/12 12:36:46;;;;;;;1.90;1.80;;;;;;;29.91;28.57;99794.50;4358920;32;35499;-77
2022/08/12 12:39:42;;;;;;;4.68;2.12;;;;;;;31.32;27.33;99790.44;4358945;32;34079;-78
2022/08/12 12:42:40;;;;;;;3.50;2.15;;;;;;;31.45;27.54;99781.19;4366437;32;35636;-77
2022/08/12 12:45:49;;;;;;;2.53;2.05;;;;;;;32.03;25.79;99786.69;4358881;32;36034;-77
2022/08/12 12:48:36;;;;;;;6.12;2.37;;;;;;;32.57;25.61;99773.56;4358186;32;35772;-78
2022/08/12 12:51:29;;;;;;;3.72;1.95;;;;;;;32.97;25.13;99776.56;4357630;32;34416;-78
2022/08/12 12:54:35;;;;;;;3.97;2.00;;;;;;;30.88;26.91;99775.94;4358857;32;34575;-78
2022/08/12 12:57:23;;;;;;;2.55;2.20;;;;;;;31.37;26.96;99769.31;4358821;32;34944;-77
2022/08/12 13:00:31;;;;;;;3.87;2.20;;;;;;;31.37;26.97;99767.25;4358877;32;34577;-77
2022/08/12 13:03:20;;;;;;;3.17;1.80;;;;;;;32.56;23.85;99761.44;4358814;32;34038;-78
2022/08/12 13:06:07;;;;;;;5.87;2.28;;;;;;;32.04;24.65;99752.22;4358987;32;34711;-76
2022/08/12 13:08:54;;;;;;;3.45;1.80;;;;;;;33.18;23.26;99748.66;4358898;32;34967;-78
2022/08/12 13:11:41;;;;;;;4.22;1.87;;;;;;;33.67;22.54;99742.31;4358807;32;34093;-77
2022/08/12 13:14:32;;;;;;;4.72;2.28;;;;;;;32.75;22.98;99747.41;4367557;32;33594;-77
2022/08/12 13:17:24;;;;;;;2.22;1.80;;;;;;;32.92;22.97;99748.78;4356215;32;35633;-77
2022/08/12 13:20:31;;;;;;;5.70;1.90;;;;;;;32.87;22.13;99743.69;4358660;32;35924;-77
2022/08/12 13:23:27;;;;;;;6.20;1.77;;;;;;;32.57;20.57;99731.81;4358675;32;35444;-77
2022/08/12 13:26:22;;;;;;;4.45;1.80;;;;;;;32.57;19.54;99737.50;4358795;32;35112;-77
2022/08/12 13:29:11;;;;;;;4.10;2.28;;;;;;;32.79;20.77;99742.37;4358504;32;34576;-77
2022/08/12 13:32:01;;;;;;;3.57;2.03;;;;;;;32.70;21.68;99737.41;4358599;32;34968;-77
2022/08/12 13:35:08;;;;;;;4.30;2.00;;;;;;;32.59;22.37;99732.16;4358465;32;35578;-77
2022/08/12 13:38:15;;;;;;;4.12;1.92;;;;;;;32.50;22.39;99728.44;4349439;32;34617;-77
2022/08/12 13:41:32;;;;;;;4.95;2.15;;;;;;;32.07;23.42;99727.84;4357608;32;35163;-78
2022/08/12 13:44:19;;;;;;;3.05;2.10;;;;;;;32.16;24.09;99733.63;4358288;32;34965;-78
2022/08/12 13:47:05;;;;;;;6.47;2.17;;;;;;;30.47;26.09;99739.84;4358101;32;34915;-78
2022/08/12 13:50:05;;;;;;;3.85;2.30;;;;;;;30.75;26.03;99737.50;4350056;32;33941;-78
2022/08/12 13:52:55;;;;;;;3.22;2.40;;;;;;;30.44;26.76;99741.53;4358487;32;35567;-78
2022/08/12 13:55:44;;;;;;;3.50;2.15;;;;;;;30.51;26.18;99734.09;4346820;32;35625;-77
2022/08/12 13:58:36;;;;;;;3.12;1.98;;;;;;;31.06;25.82;99732.19;4358151;32;33442;-77
2022/08/12 14:01:22;;;;;;;3.53;2.28;;;;;;;31.61;25.62;99723.66;4358219;32;34091;-78
2022/08/12 14:04:09;;;;;;;4.28;2.35;;;;;;;31.02;26.86;99723.00;4358427;32;34332;-78
2022/08/12 14:06:57;;;;;;;4.25;2.25;;;;;;;30.57;26.85;99718.19;4357919;32;34972;-78
2022/08/12 14:12:50;;;;;;;3.40;2.22;;;;;;;31.61;25.99;99713.13;4358172;32;33119;-78
2022/08/12 14:15:49;;;;;;;3.80;2.05;;;;;;;32.32;24.43;99700.69;4357984;32;34866;-77
2022/08/12 14:18:38;;;;;;;4.43;2.45;;;;;;;32.63;24.57;99700.81;4357912;32;36348;-78
2022/08/12 14:21:25;;;;;;;3.95;2.30;;;;;;;31.36;25.25;99697.75;4358194;32;34691;-78
2022/08/12 14:24:13;;;;;;;2.05;1.67;;;;;;;30.55;25.88;99709.38;4358197;32;34101;-77
2022/08/12 14:27:00;;;;;;;4.20;2.00;;;;;;;30.68;25.50;99705.34;4357133;32;34699;-78
2022/08/12 14:29:48;;;;;;;7.18;2.30;;;;;;;31.66;24.58;99706.91;4358545;32;35547;-78
2022/08/12 14:32:54;;;;;;;4.15;2.17;;;;;;;32.11;23.70;99688.84;4359831;32;34269;-77
2022/08/12 14:35:41;;;;;;;2.47;2.00;;;;;;;33.36;22.53;99692.00;4359563;32;34377;-78
2022/08/12 14:38:38;;;;;;;2.30;1.80;;;;;;;33.13;22.41;99685.56;4357378;32;34292;-78
2022/08/12 14:41:25;;;;;;;3.58;1.67;;;;;;;32.35;22.95;99675.03;4358322;32;36085;-78
2022/08/12 14:44:31;;;;;;;3.70;1.77;;;;;;;32.69;22.43;99679.91;4353704;32;34858;-78
2022/08/12 14:47:46;;;;;;;4.18;2.00;;;;;;;33.13;22.24;99674.22;4366259;32;34371;-78
2022/08/12 14:50:35;;;;;;;4.25;1.80;;;;;;;33.97;21.05;99669.62;4359480;32;34241;-78
2022/08/12 14:53:43;;;;;;;3.78;1.80;;;;;;;33.87;21.02;99668.03;4350382;32;34607;-78
2022/08/12 14:56:50;;;;;;;3.05;1.90;;;;;;;33.15;21.87;99671.69;4359421;32;35605;-77
2022/08/12 15:03:13;;;;;;;3.47;1.80;;;;;;;32.77;22.33;99654.91;4349234;32;34308;-77
2022/08/12 15:06:03;;;;;;;7.87;2.25;;;;;;;34.19;20.80;99647.56;4363774;32;35885;-77
2022/08/12 15:08:53;;;;;;;3.22;1.90;;;;;;;34.39;20.97;99644.25;4348392;32;34429;-78
2022/08/12 15:11:40;;;;;;;2.85;1.95;;;;;;;34.86;20.37;99650.69;4358970;32;34228;-78
2022/08/12 15:14:41;;;;;;;5.75;2.20;;;;;;;34.23;21.28;99636.03;4358573;32;35965;-78
2022/08/12 15:17:35;;;;;;;3.17;2.17;;;;;;;34.23;21.21;99641.72;4358674;32;35051;-78
2022/08/12 15:20:42;;;;;;;2.80;1.80;;;;;;;34.52;21.10;99638.38;4357692;32;34191;-78
2022/08/12 15:23:30;;;;;;;3.90;1.95;;;;;;;34.07;20.63;99634.31;4361740;32;33975;-78
2022/08/12 15:26:18;;;;;;;2.08;1.80;;;;;;;33.50;21.19;99637.47;4355424;32;35171;-78